Annona, Texas
Current Conditions -  °F | °C
As of 6:55 AM on Friday 24 Oct 2014 (Local Time) from K4O4 Reporting Station
Clear Clear  
Wind Chill: 50°   Ceiling: Unl
Heat Index: 50°   Visibility: 7mi
Dew Point: 48°   Wind: 3mph
Humidity: 94%   Direction: 70°ENE
Pressure: 30.16"   Gusts: NA
Location:  33.58°N, 94.92°W
Report Text: K4O4 241155Z AUTO 07003KT 7SM CLR 10/09 A3016 RMK AO2
Loading
Personal Weather Stations






























Interactive Weather Map New forecast layout! Learn more

10-Day Weather Forecast

Advertisements
Track Severe Weather on mobile